Terminal Aerodrome Forecast
Issued by NWS Cleveland, OH

Home | Current Version | Previous Version | Text Only | Print | Product List | Glossary Off
Versions: 1 2 3 4 5 6 7 8 9 10 11 12 13 14 15

263
FTUS41 KCLE 180537
TAFYNG
TAF
KYNG 180537Z 1806/1906 VRB03KT P6SM BKN100
     FM180900 VRB03KT 4SM BR FEW100
      TEMPO 1810/1812 2SM BR
     FM181300 18004KT P6SM SCT250
     FM181800 25004KT P6SM BKN250
     FM182100 02006KT P6SM BKN070=

USA.gov is the U.S. government's official web portal to all federal, state and local government web resources and services.